createdAt,value
2023-04-18T00:04:09.496Z,-16.16
2023-04-18T00:09:12.367Z,-16.00
2023-04-18T00:14:15.353Z,-15.68
2023-04-18T00:19:19.220Z,-15.60
2023-04-18T00:24:22.543Z,-15.70
2023-04-18T00:29:25.314Z,-15.46
2023-04-18T00:34:29.100Z,-15.25
2023-04-18T00:39:31.830Z,-15.11
2023-04-18T00:44:34.720Z,-14.94
2023-04-18T00:49:37.596Z,-14.73
2023-04-18T00:54:43.725Z,-14.55
2023-04-18T00:59:47.616Z,-14.13
2023-04-18T01:04:50.148Z,-13.78
2023-04-18T01:09:53.609Z,-13.30
2023-04-18T01:14:56.831Z,-13.16
2023-04-18T01:20:02.149Z,-12.89
2023-04-18T01:25:09.676Z,-12.69
2023-04-18T01:30:12.758Z,-12.30
2023-04-18T01:35:15.630Z,-11.65
2023-04-18T01:40:18.468Z,-11.00
2023-04-18T01:45:21.265Z,-10.68
2023-04-18T01:50:24.111Z,-10.76
2023-04-18T01:55:27.040Z,-10.37
2023-04-18T02:00:30.671Z,-10.03
2023-04-18T02:05:33.423Z,-10.17
2023-04-18T02:10:36.165Z,-10.08
2023-04-18T02:15:39.089Z,-9.96
2023-04-18T02:20:41.946Z,-9.92
2023-04-18T02:25:44.658Z,-9.36
2023-04-18T02:30:47.437Z,-8.70
2023-04-18T02:35:50.146Z,-8.57
2023-04-18T02:40:52.933Z,-8.58
2023-04-18T02:45:56.981Z,-8.48
2023-04-18T02:51:06.910Z,-8.09
2023-04-18T02:56:17.168Z,-7.35
2023-04-18T03:01:52.418Z,-7.21
2023-04-18T03:06:59.682Z,-6.71
2023-04-18T03:12:05.052Z,-6.41
2023-04-18T03:17:11.228Z,-6.51
2023-04-18T03:22:17.211Z,-6.31
2023-04-18T03:27:37.720Z,-6.22
2023-04-18T03:32:42.483Z,-6.12
2023-04-18T03:37:45.674Z,-5.99
2023-04-18T03:42:55.079Z,-5.91
2023-04-18T03:47:58.227Z,-5.55
2023-04-18T03:53:01.685Z,-6.00
2023-04-18T03:58:08.580Z,-5.94
2023-04-18T04:03:13.973Z,-5.49
2023-04-18T04:08:16.914Z,-5.35
2023-04-18T04:13:21.107Z,-5.18
2023-04-18T04:18:31.287Z,-4.90
2023-04-18T04:23:36.630Z,-5.08
2023-04-18T04:28:40.501Z,-4.97
2023-04-18T04:33:44.540Z,-4.91
2023-04-18T04:38:52.666Z,-5.07
2023-04-18T04:44:04.621Z,-4.59
2023-04-18T04:49:09.455Z,-3.70
2023-04-18T04:54:12.682Z,-3.42
2023-04-18T04:59:16.400Z,-3.82
2023-04-18T05:04:21.141Z,-3.42
2023-04-18T05:09:24.042Z,-3.13
2023-04-18T05:14:28.059Z,-2.56
2023-04-18T05:19:30.949Z,-2.49
2023-04-18T05:24:33.742Z,-2.51
2023-04-18T05:29:36.492Z,-4.07
2023-04-18T05:34:39.784Z,-5.54
2023-04-18T05:39:42.489Z,-5.39
2023-04-18T05:44:45.249Z,-5.30
2023-04-18T05:49:48.045Z,-5.53
2023-04-18T05:54:51.246Z,-5.87
2023-04-18T05:59:54.626Z,-5.15
2023-04-18T06:04:57.534Z,-4.57
2023-04-18T06:10:00.400Z,-5.27
2023-04-18T06:15:03.981Z,-5.42
2023-04-18T06:20:08.106Z,-5.43
2023-04-18T06:25:11.157Z,-5.34
2023-04-18T06:30:14.454Z,-5.21
2023-04-18T06:35:17.402Z,-5.78
2023-04-18T06:40:20.389Z,-6.05
2023-04-18T06:45:23.412Z,-5.30
2023-04-18T06:50:27.260Z,-5.07
2023-04-18T06:55:30.148Z,-4.69
2023-04-18T07:00:32.887Z,-4.81
2023-04-18T07:05:37.144Z,-5.40
2023-04-18T07:10:39.899Z,-5.48
2023-04-18T07:15:42.828Z,-5.99
2023-04-18T07:20:45.789Z,-6.48
2023-04-18T07:25:49.922Z,-6.97
2023-04-18T07:30:52.685Z,-6.22
2023-04-18T07:35:55.545Z,-5.25
2023-04-18T07:40:59.335Z,-5.38
2023-04-18T07:46:02.358Z,-6.15
2023-04-18T07:51:05.234Z,-6.06
2023-04-18T07:56:08.073Z,-5.87
2023-04-18T08:01:14.364Z,-6.38
2023-04-18T08:06:17.974Z,-6.85
2023-04-18T08:11:20.972Z,-7.70
2023-04-18T08:16:23.853Z,-7.76
2023-04-18T08:21:27.179Z,-7.60
2023-04-18T08:26:30.070Z,-7.57
2023-04-18T08:31:33.141Z,-6.20
2023-04-18T08:36:36.235Z,-5.78
2023-04-18T08:41:39.864Z,-5.31
2023-04-18T08:46:42.602Z,-6.22
2023-04-18T08:51:47.999Z,-7.25
2023-04-18T08:57:16.800Z,-7.21
2023-04-18T09:02:22.433Z,-7.38
2023-04-18T09:07:29.109Z,-7.38
2023-04-18T09:12:33.007Z,-7.51
2023-04-18T09:17:52.809Z,-7.58
2023-04-18T09:22:58.215Z,-8.09
2023-04-18T09:28:05.380Z,-7.71
2023-04-18T09:33:13.095Z,-8.08
2023-04-18T09:38:15.940Z,-8.19
2023-04-18T09:43:22.207Z,-7.99
2023-04-18T09:48:24.923Z,-8.30
2023-04-18T09:53:29.060Z,-8.47
2023-04-18T09:58:33.478Z,-8.40
2023-04-18T10:03:42.670Z,-8.56
2023-04-18T10:08:46.479Z,-8.42
2023-04-18T10:13:50.712Z,-8.33
2023-04-18T10:18:53.209Z,-8.63
2023-04-18T10:23:55.879Z,-8.72
2023-04-18T10:28:59.822Z,-8.62
2023-04-18T10:34:07.224Z,-8.51
2023-04-18T10:39:23.715Z,-8.20
2023-04-18T10:44:27.423Z,-7.93
2023-04-18T10:49:33.918Z,-7.90
2023-04-18T10:54:39.421Z,-7.76
2023-04-18T10:59:43.744Z,-7.58
2023-04-18T11:04:53.056Z,-7.57
2023-04-18T11:09:56.602Z,-7.70
2023-04-18T11:14:59.874Z,-7.66
2023-04-18T11:20:11.850Z,-7.79
2023-04-18T11:25:15.744Z,-7.82
2023-04-18T11:30:18.684Z,-8.01
2023-04-18T11:35:21.526Z,-8.09
2023-04-18T11:40:24.588Z,-8.14
2023-04-18T11:45:27.760Z,-8.36
2023-04-18T11:50:36.586Z,-8.39
2023-04-18T11:55:39.451Z,-8.24
2023-04-18T12:00:42.615Z,-8.18
2023-04-18T12:05:45.845Z,-8.15
2023-04-18T12:10:53.483Z,-8.07
2023-04-18T12:15:57.065Z,-8.16
2023-04-18T12:21:02.354Z,-8.47
2023-04-18T12:26:06.078Z,-8.83
2023-04-18T12:31:09.190Z,-9.14
2023-04-18T12:36:12.165Z,-9.11
2023-04-18T12:41:14.937Z,-9.20
2023-04-18T12:46:17.633Z,-9.22
2023-04-18T12:51:24.335Z,-9.33
2023-04-18T12:56:28.520Z,-9.58
2023-04-18T13:01:31.334Z,-9.72
2023-04-18T13:06:34.171Z,-9.69
2023-04-18T13:11:37.131Z,-9.75
2023-04-18T13:16:41.116Z,-9.82
2023-04-18T13:21:47.781Z,-9.99
2023-04-18T13:26:52.004Z,-10.23
2023-04-18T13:31:54.906Z,-10.53
2023-04-18T13:36:59.090Z,-10.76
2023-04-18T13:42:05.386Z,-10.93
2023-04-18T13:47:08.501Z,-11.00
2023-04-18T13:52:11.315Z,-11.14
2023-04-18T13:57:15.034Z,-11.09
2023-04-18T14:02:18.029Z,-11.19
2023-04-18T14:07:20.837Z,-11.14
2023-04-18T14:12:23.548Z,-11.22
2023-04-18T14:17:26.384Z,-11.25
2023-04-18T14:22:29.120Z,-11.27
2023-04-18T14:27:31.876Z,-11.29
2023-04-18T14:32:35.788Z,-11.27
2023-04-18T14:37:38.398Z,-11.29
2023-04-18T14:42:41.289Z,-11.34
2023-04-18T14:47:44.722Z,-11.40
2023-04-18T14:52:47.784Z,-11.52
2023-04-18T14:57:50.535Z,-11.66
2023-04-18T15:02:54.108Z,-11.79
2023-04-18T15:07:57.144Z,-11.95
2023-04-18T15:12:59.948Z,-12.05
2023-04-18T15:18:03.235Z,-12.30
2023-04-18T15:23:06.161Z,-12.41
2023-04-18T15:28:09.266Z,-12.39
2023-04-18T15:33:13.406Z,-12.23
2023-04-18T15:38:16.507Z,-12.20
2023-04-18T15:43:19.369Z,-12.26
2023-04-18T15:48:22.126Z,-12.15
2023-04-18T15:53:24.948Z,-12.38
2023-04-18T15:58:30.484Z,-12.27
2023-04-18T16:03:33.493Z,-12.24
2023-04-18T16:08:37.358Z,-12.26
2023-04-18T16:13:40.119Z,-12.30
2023-04-18T16:18:42.834Z,-12.35
2023-04-18T16:23:45.725Z,-12.40
2023-04-18T16:28:48.895Z,-12.44
2023-04-18T16:33:53.113Z,-12.38
2023-04-18T16:38:56.014Z,-12.36
2023-04-18T16:43:58.769Z,-12.39
2023-04-18T16:49:02.043Z,-12.41
2023-04-18T16:54:05.531Z,-12.27
2023-04-18T16:59:09.720Z,-11.73
2023-04-18T17:04:12.874Z,-11.47
2023-04-18T17:09:16.154Z,-11.24
2023-04-18T17:14:19.256Z,-11.14
2023-04-18T17:19:22.948Z,-11.06
2023-04-18T17:24:25.690Z,-11.05
2023-04-18T17:29:28.480Z,-10.94
2023-04-18T17:34:31.362Z,-10.94
2023-04-18T17:39:34.239Z,-10.77
2023-04-18T17:44:40.046Z,-10.73
2023-04-18T17:49:43.059Z,-10.69
2023-04-18T17:54:46.010Z,-10.64
2023-04-18T17:59:49.392Z,-10.57
2023-04-18T18:04:52.343Z,-10.55
2023-04-18T18:09:55.391Z,-10.56
2023-04-18T18:14:58.503Z,-10.49
2023-04-18T18:20:01.229Z,-10.49
2023-04-18T18:25:05.725Z,-10.58
2023-04-18T18:30:08.624Z,-10.40
2023-04-18T18:35:11.373Z,-10.44
2023-04-18T18:40:14.367Z,-10.42
2023-04-18T18:45:17.909Z,-10.38
2023-04-18T18:50:20.740Z,-10.35
2023-04-18T18:55:23.731Z,-10.31
2023-04-18T19:00:26.702Z,-10.32
2023-04-18T19:05:29.511Z,-10.30
2023-04-18T19:10:32.331Z,-10.26
2023-04-18T19:15:35.236Z,-10.28
2023-04-18T19:20:40.663Z,-10.15
2023-04-18T19:25:43.689Z,-10.13
2023-04-18T19:30:46.794Z,-10.29
2023-04-18T19:35:49.535Z,-10.23
2023-04-18T19:40:52.475Z,-10.25
2023-04-18T19:45:55.464Z,-10.35
2023-04-18T19:50:58.485Z,-10.19
2023-04-18T19:56:01.258Z,-10.22
2023-04-18T20:01:06.387Z,-10.45
2023-04-18T20:06:09.510Z,-10.66
2023-04-18T20:11:14.456Z,-10.84
2023-04-18T20:16:17.766Z,-11.05
2023-04-18T20:21:20.661Z,-11.22
2023-04-18T20:26:23.537Z,-11.09
2023-04-18T20:31:26.275Z,-11.02
2023-04-18T20:36:31.365Z,-10.84
2023-04-18T20:41:35.088Z,-10.73
2023-04-18T20:46:37.924Z,-10.79
2023-04-18T20:51:40.763Z,-10.83
2023-04-18T20:56:43.659Z,-10.98
2023-04-18T21:01:47.285Z,-11.29
2023-04-18T21:06:50.188Z,-11.31
2023-04-18T21:11:52.961Z,-11.45
2023-04-18T21:16:56.405Z,-11.61
2023-04-18T21:21:59.388Z,-11.80
2023-04-18T21:27:02.884Z,-11.97
2023-04-18T21:32:05.740Z,-12.05
2023-04-18T21:37:08.814Z,-12.24
2023-04-18T21:42:11.604Z,-12.46
2023-04-18T21:47:14.381Z,-12.52
2023-04-18T21:52:17.247Z,-12.65
2023-04-18T21:57:19.861Z,-12.78
2023-04-18T22:02:22.822Z,-12.81
2023-04-18T22:07:25.773Z,-12.87
2023-04-18T22:12:28.801Z,-12.78
2023-04-18T22:17:31.674Z,-12.89
2023-04-18T22:22:34.423Z,-12.98
2023-04-18T22:27:37.263Z,-13.16
2023-04-18T22:32:40.401Z,-13.22
2023-04-18T22:37:43.266Z,-13.28
2023-04-18T22:42:46.062Z,-13.36
2023-04-18T22:47:48.850Z,-13.40
2023-04-18T22:52:51.833Z,-13.54
2023-04-18T22:57:54.676Z,-13.62
2023-04-18T23:02:57.568Z,-13.72
2023-04-18T23:08:00.748Z,-13.73
2023-04-18T23:13:03.773Z,-13.76
2023-04-18T23:18:06.566Z,-13.80
2023-04-18T23:23:09.438Z,-13.89
2023-04-18T23:28:13.915Z,-13.88
2023-04-18T23:33:17.151Z,-13.86
2023-04-18T23:38:20.058Z,-13.81
2023-04-18T23:43:22.843Z,-13.77
2023-04-18T23:48:25.596Z,-13.73
2023-04-18T23:53:28.474Z,-13.69
2023-04-18T23:58:32.059Z,-13.66
